createdAt,value
2022-10-31T00:01:37.812Z,7.25
2022-10-31T00:04:06.044Z,6.38
2022-10-31T00:06:35.430Z,6.35
2022-10-31T00:09:09.164Z,6.25
2022-10-31T00:11:38.591Z,6.60
2022-10-31T00:14:06.344Z,6.95
2022-10-31T00:16:33.726Z,6.72
2022-10-31T00:19:04.002Z,7.40
2022-10-31T00:21:32.030Z,7.90
2022-10-31T00:24:00.388Z,6.55
2022-10-31T00:26:29.434Z,6.88
2022-10-31T00:28:57.361Z,6.47
2022-10-31T00:31:27.593Z,6.68
2022-10-31T00:33:55.270Z,6.75
2022-10-31T00:36:24.632Z,6.43
2022-10-31T00:38:54.313Z,6.45
2022-10-31T00:41:23.741Z,5.57
2022-10-31T00:43:50.990Z,6.45
2022-10-31T00:46:20.740Z,5.80
2022-10-31T00:48:50.157Z,6.13
2022-10-31T00:51:17.299Z,6.50
2022-10-31T00:53:44.583Z,5.85
2022-10-31T00:56:14.035Z,6.22
2022-10-31T00:58:43.672Z,5.80
2022-10-31T01:01:11.034Z,5.47
2022-10-31T01:03:39.612Z,5.22
2022-10-31T01:06:11.078Z,4.78
2022-10-31T01:08:41.618Z,5.57
2022-10-31T01:11:08.770Z,5.38
2022-10-31T01:13:38.610Z,5.40
2022-10-31T01:16:08.439Z,4.97
2022-10-31T01:18:35.675Z,4.97
2022-10-31T01:21:05.681Z,4.95
2022-10-31T01:23:33.955Z,4.22
2022-10-31T01:26:07.233Z,5.38
2022-10-31T01:28:37.158Z,4.88
2022-10-31T01:31:07.288Z,4.22
2022-10-31T01:33:34.960Z,4.07
2022-10-31T01:36:11.252Z,4.88
2022-10-31T01:38:40.905Z,4.82
2022-10-31T01:41:12.096Z,5.07
2022-10-31T01:43:57.825Z,4.03
2022-10-31T01:46:31.073Z,4.43
2022-10-31T01:49:00.010Z,5.00
2022-10-31T01:51:35.559Z,5.63
2022-10-31T01:54:07.473Z,4.65
2022-10-31T01:56:37.593Z,4.40
2022-10-31T01:59:11.270Z,4.35
2022-10-31T02:01:39.229Z,4.18
2022-10-31T02:04:10.926Z,3.97
2022-10-31T02:07:07.132Z,4.43
2022-10-31T02:09:36.322Z,4.20
2022-10-31T02:12:04.704Z,4.47
2022-10-31T02:14:32.695Z,4.38
2022-10-31T02:16:59.881Z,4.22
2022-10-31T02:20:01.807Z,4.30
2022-10-31T02:22:37.094Z,4.15
2022-10-31T02:25:25.774Z,3.97
2022-10-31T02:28:26.646Z,3.15
2022-10-31T02:31:02.406Z,3.10
2022-10-31T02:33:54.352Z,2.78
2022-10-31T02:36:36.378Z,3.15
2022-10-31T02:39:18.532Z,3.42
2022-10-31T02:42:04.792Z,4.32
2022-10-31T02:44:48.423Z,3.70
2022-10-31T02:47:23.026Z,3.75
2022-10-31T02:50:09.121Z,3.65
2022-10-31T02:52:36.784Z,3.90
2022-10-31T02:55:35.959Z,3.90
2022-10-31T02:58:09.485Z,3.72
2022-10-31T03:01:07.301Z,3.25
2022-10-31T03:03:59.184Z,3.10
2022-10-31T03:06:59.107Z,3.60
2022-10-31T03:09:44.934Z,3.97
2022-10-31T03:12:22.509Z,3.72
2022-10-31T03:15:09.690Z,3.90
2022-10-31T03:18:04.919Z,4.47
2022-10-31T03:21:00.881Z,4.30
2022-10-31T03:23:31.062Z,4.05
2022-10-31T03:26:01.443Z,3.90
2022-10-31T03:28:33.975Z,4.05
2022-10-31T03:31:07.249Z,3.70
2022-10-31T03:33:38.795Z,3.90
2022-10-31T03:36:09.249Z,3.40
2022-10-31T03:38:37.877Z,3.80
2022-10-31T03:41:11.350Z,3.53
2022-10-31T03:46:08.985Z,3.88
2022-10-31T03:48:36.332Z,4.65
2022-10-31T03:51:20.048Z,4.15
2022-10-31T03:54:25.894Z,3.42
2022-10-31T03:57:28.323Z,3.92
2022-10-31T04:00:06.992Z,3.70
2022-10-31T04:02:37.941Z,3.65
2022-10-31T04:05:06.765Z,3.88
2022-10-31T04:07:41.180Z,3.70
2022-10-31T04:10:12.257Z,3.80
2022-10-31T04:12:40.255Z,3.33
2022-10-31T04:15:10.639Z,3.42
2022-10-31T04:17:41.761Z,3.70
2022-10-31T04:20:09.806Z,4.13
2022-10-31T04:22:37.009Z,3.80
2022-10-31T04:25:04.919Z,3.95
2022-10-31T04:27:32.502Z,4.00
2022-10-31T04:30:00.653Z,4.20
2022-10-31T04:32:27.873Z,4.07
2022-10-31T04:34:57.555Z,3.85
2022-10-31T04:37:24.720Z,3.42
2022-10-31T04:39:54.133Z,3.38
2022-10-31T04:42:21.332Z,3.60
2022-10-31T04:44:48.969Z,3.20
2022-10-31T04:47:20.840Z,3.33
2022-10-31T04:49:50.499Z,3.20
2022-10-31T04:52:17.689Z,3.30
2022-10-31T04:54:50.307Z,3.90
2022-10-31T04:57:17.880Z,3.60
2022-10-31T04:59:45.043Z,3.05
2022-10-31T05:02:12.368Z,4.13
2022-10-31T05:04:39.644Z,3.28
2022-10-31T05:07:06.858Z,3.58
2022-10-31T05:09:36.621Z,3.50
2022-10-31T05:12:04.007Z,3.13
2022-10-31T05:14:31.293Z,2.90
2022-10-31T05:17:00.574Z,3.15
2022-10-31T05:19:27.750Z,2.72
2022-10-31T05:21:55.007Z,2.95
2022-10-31T05:24:22.713Z,2.78
2022-10-31T05:26:50.551Z,3.15
2022-10-31T05:29:17.806Z,3.00
2022-10-31T05:31:45.038Z,3.10
2022-10-31T05:34:12.215Z,3.35
2022-10-31T05:36:39.353Z,3.20
2022-10-31T05:39:06.531Z,3.17
2022-10-31T05:41:36.209Z,2.90
2022-10-31T05:44:03.459Z,2.85
2022-10-31T05:49:04.848Z,3.30
2022-10-31T05:51:34.209Z,3.03
2022-10-31T05:54:01.359Z,3.10
2022-10-31T05:56:28.617Z,2.90
2022-10-31T05:58:55.855Z,3.25
2022-10-31T06:01:23.136Z,3.25
2022-10-31T06:03:50.894Z,3.30
2022-10-31T06:06:18.149Z,3.35
2022-10-31T06:08:45.323Z,3.92
2022-10-31T06:11:12.536Z,4.47
2022-10-31T06:13:39.737Z,3.92
2022-10-31T06:16:09.435Z,4.53
2022-10-31T06:18:39.070Z,4.75
2022-10-31T06:21:08.458Z,3.95
2022-10-31T06:23:35.734Z,3.90
2022-10-31T06:26:02.894Z,4.43
2022-10-31T06:28:30.091Z,4.32
2022-10-31T06:30:57.288Z,3.95
2022-10-31T06:33:24.477Z,4.55
2022-10-31T06:35:51.667Z,4.55
2022-10-31T06:38:23.527Z,4.40
2022-10-31T06:40:55.745Z,4.43
2022-10-31T06:43:27.562Z,4.35
2022-10-31T06:45:54.717Z,4.50
2022-10-31T06:48:22.311Z,4.97
2022-10-31T06:50:54.722Z,5.07
2022-10-31T06:53:25.831Z,4.85
2022-10-31T06:55:53.021Z,4.60
2022-10-31T06:58:20.243Z,4.50
2022-10-31T07:00:47.508Z,4.70
2022-10-31T07:03:16.632Z,4.55
2022-10-31T07:05:44.323Z,4.80
2022-10-31T07:08:13.792Z,4.35
2022-10-31T07:10:43.156Z,4.75
2022-10-31T07:13:19.593Z,4.40
2022-10-31T07:15:46.777Z,4.88
2022-10-31T07:18:16.570Z,4.70
2022-10-31T07:20:43.768Z,4.93
2022-10-31T07:23:11.960Z,4.82
2022-10-31T07:25:42.854Z,5.32
2022-10-31T07:28:10.820Z,5.18
2022-10-31T07:30:40.371Z,5.45
2022-10-31T07:33:09.831Z,5.20
2022-10-31T07:35:39.391Z,5.32
2022-10-31T07:38:16.108Z,5.60
2022-10-31T07:40:43.816Z,5.25
2022-10-31T07:43:19.196Z,5.53
2022-10-31T07:45:53.801Z,5.68
2022-10-31T07:48:21.604Z,5.93
2022-10-31T07:50:48.928Z,6.95
2022-10-31T07:53:17.064Z,7.72
2022-10-31T07:55:47.703Z,8.50
2022-10-31T07:58:18.566Z,8.75
2022-10-31T08:00:47.290Z,7.80
2022-10-31T08:03:17.627Z,8.18
2022-10-31T08:05:46.909Z,7.82
2022-10-31T08:08:18.249Z,8.93
2022-10-31T08:10:45.519Z,8.15
2022-10-31T08:13:14.657Z,7.90
2022-10-31T08:15:43.052Z,8.18
2022-10-31T08:18:18.514Z,8.07
2022-10-31T08:20:46.032Z,8.25
2022-10-31T08:23:16.958Z,8.10
2022-10-31T08:25:44.211Z,8.55
2022-10-31T08:28:12.597Z,8.55
2022-10-31T08:30:42.518Z,8.65
2022-10-31T08:33:19.682Z,9.20
2022-10-31T08:35:49.418Z,9.20
2022-10-31T08:38:17.326Z,8.48
2022-10-31T08:40:44.534Z,8.82
2022-10-31T08:43:16.747Z,9.77
2022-10-31T08:45:48.884Z,8.88
2022-10-31T08:48:17.782Z,8.35
2022-10-31T08:50:50.782Z,8.23
2022-10-31T08:53:19.916Z,9.45
2022-10-31T08:55:47.668Z,9.07
2022-10-31T08:58:17.198Z,8.40
2022-10-31T09:00:45.592Z,8.23
2022-10-31T09:03:15.582Z,9.02
2022-10-31T09:05:42.996Z,8.52
2022-10-31T09:08:16.230Z,8.65
2022-10-31T09:13:16.146Z,8.57
2022-10-31T09:15:44.797Z,8.50
2022-10-31T09:18:13.177Z,8.93
2022-10-31T09:20:41.911Z,8.50
2022-10-31T09:23:17.717Z,8.85
2022-10-31T09:25:50.195Z,9.85
2022-10-31T09:28:23.305Z,9.52
2022-10-31T09:30:53.262Z,10.70
2022-10-31T09:33:21.300Z,9.48
2022-10-31T09:35:49.501Z,9.60
2022-10-31T09:38:24.380Z,9.55
2022-10-31T09:41:15.341Z,9.48
2022-10-31T09:44:23.679Z,9.10
2022-10-31T09:47:12.228Z,9.23
2022-10-31T09:50:16.740Z,8.82
2022-10-31T09:52:59.178Z,8.45
2022-10-31T09:55:43.337Z,9.15
2022-10-31T09:58:20.638Z,9.05
2022-10-31T10:00:51.728Z,9.13
2022-10-31T10:03:30.928Z,9.20
2022-10-31T10:06:22.293Z,10.05
2022-10-31T10:08:51.953Z,9.45
2022-10-31T10:11:39.591Z,9.30
2022-10-31T10:14:35.294Z,8.82
2022-10-31T10:17:33.366Z,8.50
2022-10-31T10:20:38.830Z,8.27
2022-10-31T10:23:27.764Z,8.95
2022-10-31T10:26:18.786Z,8.35
2022-10-31T10:28:55.143Z,8.63
2022-10-31T10:31:26.644Z,8.95
2022-10-31T10:34:02.752Z,8.70
2022-10-31T10:37:05.589Z,8.95
2022-10-31T10:39:44.481Z,9.27
2022-10-31T10:42:33.076Z,9.23
2022-10-31T10:45:20.079Z,8.95
2022-10-31T10:48:01.200Z,9.60
2022-10-31T10:50:36.231Z,8.50
2022-10-31T10:53:33.324Z,9.00
2022-10-31T10:56:23.984Z,8.93
2022-10-31T10:58:55.332Z,8.07
2022-10-31T11:01:23.592Z,8.45
2022-10-31T11:03:51.249Z,7.63
2022-10-31T11:06:26.939Z,7.63
2022-10-31T11:08:56.614Z,7.32
2022-10-31T11:11:30.570Z,7.53
2022-10-31T11:14:12.744Z,7.07
2022-10-31T11:16:49.308Z,6.97
2022-10-31T11:19:27.924Z,6.88
2022-10-31T11:21:58.425Z,6.80
2022-10-31T11:24:28.468Z,6.40
2022-10-31T11:27:18.519Z,6.63
2022-10-31T11:29:48.263Z,5.70
2022-10-31T11:32:24.960Z,6.22
2022-10-31T11:35:09.455Z,5.88
2022-10-31T11:37:44.112Z,5.93
2022-10-31T11:40:21.403Z,5.60
2022-10-31T11:42:50.331Z,5.30
2022-10-31T11:45:27.998Z,5.50
2022-10-31T11:48:02.012Z,5.00
2022-10-31T11:50:36.936Z,5.28
2022-10-31T11:53:05.475Z,5.03
2022-10-31T11:55:37.524Z,4.90
2022-10-31T11:58:05.797Z,5.13
2022-10-31T12:00:33.393Z,4.55
2022-10-31T12:03:27.618Z,3.92
2022-10-31T12:06:11.046Z,4.32
2022-10-31T12:08:39.824Z,4.32
2022-10-31T12:11:31.333Z,4.57
2022-10-31T12:14:16.209Z,4.50
2022-10-31T12:17:06.512Z,3.90
2022-10-31T12:19:46.129Z,4.35
2022-10-31T12:22:27.565Z,4.22
2022-10-31T12:25:13.474Z,4.63
2022-10-31T12:28:15.655Z,3.88
2022-10-31T12:31:00.024Z,4.30
2022-10-31T12:33:27.171Z,4.05
2022-10-31T12:35:57.569Z,4.05
2022-10-31T12:38:31.654Z,3.80
2022-10-31T12:41:20.084Z,3.78
2022-10-31T12:43:59.578Z,3.83
2022-10-31T12:46:34.716Z,4.28
2022-10-31T12:49:31.520Z,3.90
2022-10-31T12:52:06.495Z,4.10
2022-10-31T12:54:59.229Z,3.85
2022-10-31T12:57:37.084Z,4.00
2022-10-31T13:00:17.436Z,3.83
2022-10-31T13:03:06.531Z,4.22
2022-10-31T13:05:47.344Z,4.03
2022-10-31T13:08:22.872Z,3.75
2022-10-31T13:11:03.564Z,4.55
2022-10-31T13:13:44.324Z,4.18
2022-10-31T13:16:25.633Z,3.78
2022-10-31T13:18:55.930Z,4.47
2022-10-31T13:21:31.367Z,4.00
2022-10-31T13:24:01.547Z,3.88
2022-10-31T13:26:48.336Z,4.05
2022-10-31T13:29:21.325Z,4.03
2022-10-31T13:31:51.274Z,4.13
2022-10-31T13:34:43.808Z,3.60
2022-10-31T13:37:35.514Z,3.85
2022-10-31T13:40:23.999Z,3.25
2022-10-31T13:43:02.825Z,4.07
2022-10-31T13:45:30.460Z,3.53
2022-10-31T13:48:32.884Z,3.53
2022-10-31T13:51:03.198Z,4.22
2022-10-31T13:53:37.897Z,3.58
2022-10-31T13:56:38.055Z,3.50
2022-10-31T13:59:23.071Z,3.88
2022-10-31T14:02:02.113Z,3.95
2022-10-31T14:04:37.603Z,3.47
2022-10-31T14:07:11.430Z,3.70
2022-10-31T14:09:55.598Z,3.53
2022-10-31T14:12:39.355Z,4.43
2022-10-31T14:15:27.711Z,4.15
2022-10-31T14:18:08.393Z,4.15
2022-10-31T14:20:40.002Z,4.22
2022-10-31T14:23:33.760Z,4.25
2022-10-31T14:28:50.229Z,3.97
2022-10-31T14:31:54.167Z,3.85
2022-10-31T14:34:52.948Z,4.45
2022-10-31T14:37:51.739Z,4.35
2022-10-31T14:40:50.479Z,4.63
2022-10-31T14:43:57.905Z,5.10
2022-10-31T14:46:36.144Z,5.00
2022-10-31T14:49:10.470Z,4.90
2022-10-31T14:51:45.194Z,4.68
2022-10-31T14:54:18.445Z,4.40
2022-10-31T14:56:56.343Z,4.78
2022-10-31T14:59:31.109Z,4.70
2022-10-31T15:02:08.755Z,4.68
2022-10-31T15:04:37.130Z,4.60
2022-10-31T15:07:24.719Z,5.18
2022-10-31T15:10:03.971Z,4.82
2022-10-31T15:12:33.660Z,4.85
2022-10-31T15:15:22.822Z,5.35
2022-10-31T15:18:01.393Z,4.95
2022-10-31T15:20:32.111Z,5.63
2022-10-31T15:23:03.003Z,4.97
2022-10-31T15:25:35.429Z,4.88
2022-10-31T15:28:15.778Z,5.43
2022-10-31T15:30:52.622Z,5.20
2022-10-31T15:33:33.649Z,4.45
2022-10-31T15:36:05.284Z,5.20
2022-10-31T15:38:33.779Z,5.38
2022-10-31T15:41:19.671Z,5.40
2022-10-31T15:43:50.267Z,5.75
2022-10-31T15:46:17.564Z,5.65
2022-10-31T15:48:50.050Z,6.10
2022-10-31T15:51:26.399Z,5.93
2022-10-31T15:53:55.883Z,5.15
2022-10-31T15:56:29.676Z,5.50
2022-10-31T15:59:01.121Z,5.43
2022-10-31T16:01:34.352Z,5.43
2022-10-31T16:04:22.364Z,5.30
2022-10-31T16:07:15.504Z,5.15
2022-10-31T16:10:02.002Z,5.85
2022-10-31T16:12:37.885Z,5.65
2022-10-31T16:15:07.701Z,5.28
2022-10-31T16:17:35.329Z,5.70
2022-10-31T16:20:05.975Z,5.25
2022-10-31T16:22:38.473Z,6.55
2022-10-31T16:25:12.737Z,5.90
2022-10-31T16:27:40.850Z,5.50
2022-10-31T16:30:26.864Z,5.65
2022-10-31T16:33:00.862Z,4.60
2022-10-31T16:35:38.322Z,5.72
2022-10-31T16:38:06.483Z,5.45
2022-10-31T16:40:35.335Z,5.38
2022-10-31T16:43:05.317Z,5.88
2022-10-31T16:45:36.658Z,5.75
2022-10-31T16:48:12.778Z,5.70
2022-10-31T16:50:43.893Z,5.95
2022-10-31T16:53:16.670Z,6.50
2022-10-31T16:55:55.804Z,6.28
2022-10-31T16:58:30.548Z,5.50
2022-10-31T17:00:58.967Z,5.03
2022-10-31T17:03:26.327Z,6.10
2022-10-31T17:05:56.155Z,6.30
2022-10-31T17:08:26.232Z,5.80
2022-10-31T17:10:59.983Z,5.63
2022-10-31T17:13:33.989Z,5.05
2022-10-31T17:16:03.177Z,4.95
2022-10-31T17:18:33.299Z,5.57
2022-10-31T17:21:06.196Z,4.05
2022-10-31T17:23:38.179Z,4.43
2022-10-31T17:26:10.985Z,4.80
2022-10-31T17:28:38.381Z,10.48
2022-10-31T17:31:05.950Z,7.70
2022-10-31T17:33:37.711Z,7.30
2022-10-31T17:36:05.286Z,7.20
2022-10-31T17:38:32.541Z,6.68
2022-10-31T17:40:59.706Z,7.93
2022-10-31T17:43:29.110Z,7.43
2022-10-31T17:46:00.255Z,6.97
2022-10-31T17:48:28.458Z,6.88
2022-10-31T17:50:59.732Z,5.95
2022-10-31T17:53:33.419Z,6.72
2022-10-31T17:56:10.596Z,6.97
2022-10-31T17:58:38.628Z,5.88
2022-10-31T18:01:13.787Z,6.03
2022-10-31T18:03:41.573Z,5.13
2022-10-31T18:06:12.412Z,5.78
2022-10-31T18:08:41.163Z,5.68
2022-10-31T18:11:17.979Z,4.68
2022-10-31T18:13:48.138Z,4.13
2022-10-31T18:16:21.503Z,4.18
2022-10-31T18:21:30.147Z,3.42
2022-10-31T18:23:59.578Z,4.07
2022-10-31T18:26:28.607Z,4.47
2022-10-31T18:28:56.280Z,3.83
2022-10-31T18:31:23.570Z,4.60
2022-10-31T18:33:54.568Z,4.93
2022-10-31T18:36:22.824Z,5.35
2022-10-31T18:38:53.167Z,4.38
2022-10-31T18:41:21.257Z,4.18
2022-10-31T18:43:51.514Z,4.60
2022-10-31T18:46:26.055Z,8.88
2022-10-31T18:48:53.627Z,7.70
2022-10-31T18:51:20.803Z,7.45
2022-10-31T18:53:53.469Z,6.07
2022-10-31T18:56:23.288Z,4.23
2022-10-31T18:58:51.454Z,4.40
2022-10-31T19:01:20.718Z,4.05
2022-10-31T19:03:56.390Z,3.70
2022-10-31T19:06:25.252Z,4.40
2022-10-31T19:09:01.694Z,3.55
2022-10-31T19:11:31.792Z,3.65
2022-10-31T19:13:59.502Z,4.75
2022-10-31T19:16:27.359Z,4.60
2022-10-31T19:18:58.571Z,4.25
2022-10-31T19:21:28.831Z,4.10
2022-10-31T19:23:58.746Z,3.90
2022-10-31T19:26:31.658Z,4.15
2022-10-31T19:28:58.914Z,4.05
2022-10-31T19:31:26.622Z,4.60
2022-10-31T19:33:54.389Z,4.00
2022-10-31T19:36:24.174Z,4.20
2022-10-31T19:38:56.916Z,4.35
2022-10-31T19:41:27.612Z,4.97
2022-10-31T19:43:55.375Z,3.92
2022-10-31T19:46:40.449Z,4.25
2022-10-31T19:49:13.946Z,3.85
2022-10-31T19:51:43.740Z,3.67
2022-10-31T19:54:13.674Z,4.22
2022-10-31T19:56:43.704Z,3.88
2022-10-31T19:59:10.960Z,3.35
2022-10-31T20:01:40.739Z,3.72
2022-10-31T20:04:12.924Z,3.70
2022-10-31T20:06:42.952Z,3.60
2022-10-31T20:09:14.949Z,3.58
2022-10-31T20:11:46.418Z,3.75
2022-10-31T20:14:17.606Z,3.38
2022-10-31T20:16:46.480Z,3.50
2022-10-31T20:19:14.279Z,3.67
2022-10-31T20:21:42.040Z,3.70
2022-10-31T20:24:10.891Z,3.50
2022-10-31T20:26:40.902Z,4.05
2022-10-31T20:29:12.133Z,3.83
2022-10-31T20:31:40.351Z,3.40
2022-10-31T20:34:07.734Z,4.55
2022-10-31T20:36:39.708Z,4.63
2022-10-31T20:39:06.929Z,4.60
2022-10-31T20:41:38.592Z,3.97
2022-10-31T20:44:08.327Z,4.43
2022-10-31T20:46:38.218Z,4.65
2022-10-31T20:49:05.979Z,3.30
2022-10-31T20:51:33.368Z,3.20
2022-10-31T20:54:01.358Z,4.88
2022-10-31T20:56:29.093Z,3.80
2022-10-31T20:59:00.253Z,3.00
2022-10-31T21:01:33.251Z,3.67
2022-10-31T21:04:01.547Z,3.67
2022-10-31T21:06:30.017Z,3.78
2022-10-31T21:09:00.686Z,3.22
2022-10-31T21:11:28.336Z,4.00
2022-10-31T21:13:58.588Z,3.60
2022-10-31T21:16:32.304Z,3.88
2022-10-31T21:19:03.309Z,3.65
2022-10-31T21:21:35.147Z,3.80
2022-10-31T21:24:13.223Z,3.75
2022-10-31T21:26:46.687Z,3.42
2022-10-31T21:31:47.520Z,3.45
2022-10-31T21:34:17.815Z,3.20
2022-10-31T21:36:45.216Z,3.70
2022-10-31T21:39:13.139Z,3.00
2022-10-31T21:41:40.513Z,2.85
2022-10-31T21:44:10.062Z,2.83
2022-10-31T21:46:41.988Z,3.08
2022-10-31T21:49:10.771Z,3.17
2022-10-31T21:51:38.077Z,3.58
2022-10-31T21:54:24.168Z,3.60
2022-10-31T21:56:51.782Z,3.45
2022-10-31T21:59:19.019Z,3.17
2022-10-31T22:01:48.616Z,3.40
2022-10-31T22:04:16.307Z,3.15
2022-10-31T22:06:44.569Z,2.97
2022-10-31T22:09:14.862Z,3.78
2022-10-31T22:11:45.861Z,3.20
2022-10-31T22:14:14.360Z,3.50
2022-10-31T22:16:41.931Z,3.15
2022-10-31T22:19:11.897Z,3.30
2022-10-31T22:21:47.446Z,3.33
2022-10-31T22:24:16.641Z,3.30
2022-10-31T22:26:44.424Z,3.10
2022-10-31T22:29:17.413Z,3.55
2022-10-31T22:31:48.448Z,3.10
2022-10-31T22:34:19.030Z,3.72
2022-10-31T22:36:48.864Z,3.25
2022-10-31T22:39:16.289Z,2.78
2022-10-31T22:41:43.702Z,3.13
2022-10-31T22:44:11.097Z,3.47
2022-10-31T22:46:39.837Z,2.95
2022-10-31T22:49:11.274Z,2.92
2022-10-31T22:51:39.684Z,3.13
2022-10-31T22:54:16.087Z,2.67
2022-10-31T22:56:45.910Z,2.90
2022-10-31T22:59:15.018Z,2.95
2022-10-31T23:01:45.500Z,2.90
2022-10-31T23:04:14.339Z,2.78
2022-10-31T23:06:43.717Z,3.33
2022-10-31T23:09:14.365Z,2.90
2022-10-31T23:11:47.652Z,2.88
2022-10-31T23:14:20.851Z,2.80
2022-10-31T23:19:27.455Z,2.67
2022-10-31T23:22:01.147Z,2.90
2022-10-31T23:24:46.617Z,2.97
2022-10-31T23:27:20.409Z,2.40
2022-10-31T23:29:51.030Z,2.90
2022-10-31T23:32:27.141Z,2.75
2022-10-31T23:34:59.835Z,2.42
2022-10-31T23:37:30.034Z,2.35
2022-10-31T23:39:57.451Z,2.92
2022-10-31T23:42:25.698Z,2.42
2022-10-31T23:44:53.567Z,2.42
2022-10-31T23:47:21.618Z,2.33
2022-10-31T23:49:49.291Z,2.67
2022-10-31T23:52:21.641Z,2.38
2022-10-31T23:54:48.852Z,2.65
2022-10-31T23:57:16.924Z,2.78
2022-10-31T23:59:47.908Z,2.40
